Time;durP1;ratioP1;P1;durP2;ratioP2;P2;SDS_P1;SDS_P2;PMS_P1;PMS_P2;Temp;Humidity;BMP_temperature;BMP_pressure;BME280_temperature;BME280_humidity;BME280_pressure;Samples;Min_cycle;Max_cycle;Signal;HPM_P1;HPM_P2
2021/05/11 00:01:05;;;;;;;6.63;5.57;;;;;;;15.94;100.00;100295.47;5030278;28;20216;-78
2021/05/11 00:03:31;;;;;;;6.40;5.38;;;;;;;15.86;100.00;100294.31;4999837;28;20188;-78
2021/05/11 00:05:59;;;;;;;5.72;5.20;;;;;;;15.93;100.00;100300.16;5015613;28;20242;-78
2021/05/11 00:08:24;;;;;;;6.22;5.22;;;;;;;16.01;100.00;100307.59;5016688;28;20204;-78
2021/05/11 00:10:50;;;;;;;7.28;5.65;;;;;;;16.05;100.00;100297.59;5004270;28;20243;-78
2021/05/11 00:13:18;;;;;;;7.20;5.38;;;;;;;16.16;100.00;100278.97;5017891;28;20184;-77
2021/05/11 00:15:44;;;;;;;8.48;5.97;;;;;;;16.23;100.00;100282.88;5029904;28;20228;-76
2021/05/11 00:18:13;;;;;;;7.00;5.32;;;;;;;16.01;100.00;100288.41;4997389;28;20246;-77
2021/05/11 00:20:41;;;;;;;5.25;4.65;;;;;;;15.75;100.00;100280.38;5022370;28;20235;-77
2021/05/11 00:23:07;;;;;;;7.10;5.10;;;;;;;15.61;100.00;100277.75;4993772;28;20188;-78
2021/05/11 00:25:32;;;;;;;6.70;5.57;;;;;;;15.47;100.00;100289.88;5015484;28;20232;-79
2021/05/11 00:28:03;;;;;;;6.68;5.93;;;;;;;15.64;100.00;100299.03;5015656;28;20823;-78
2021/05/11 00:30:32;;;;;;;7.05;6.35;;;;;;;15.71;100.00;100291.16;5016763;28;20219;-79
2021/05/11 00:33:02;;;;;;;6.72;5.93;;;;;;;15.68;100.00;100280.03;5028240;28;20192;-76
2021/05/11 00:35:28;;;;;;;6.47;5.75;;;;;;;15.51;100.00;100286.22;5012116;28;20226;-77
2021/05/11 00:37:54;;;;;;;6.80;6.07;;;;;;;15.72;100.00;100302.94;5030206;28;20185;-77
2021/05/11 00:40:20;;;;;;;5.78;5.25;;;;;;;15.79;100.00;100296.69;5030781;28;20204;-78
2021/05/11 00:42:48;;;;;;;6.05;5.20;;;;;;;15.91;100.00;100285.13;5015051;28;20177;-77
2021/05/11 00:45:16;;;;;;;5.30;4.80;;;;;;;15.77;100.00;100296.19;5030668;28;20184;-79
2021/05/11 00:47:44;;;;;;;6.20;5.30;;;;;;;15.64;100.00;100281.78;5031978;28;20180;-77
2021/05/11 00:50:17;;;;;;;5.75;5.07;;;;;;;15.51;100.00;100263.50;5022683;28;20278;-77
2021/05/11 00:52:46;;;;;;;5.18;4.72;;;;;;;15.49;100.00;100261.09;5014298;28;20315;-77
2021/05/11 00:55:11;;;;;;;5.90;4.53;;;;;;;15.30;100.00;100267.09;4997002;28;20188;-78
2021/05/11 00:57:37;;;;;;;5.25;4.78;;;;;;;15.51;100.00;100274.44;4998383;28;20192;-77
2021/05/11 01:00:08;;;;;;;7.78;5.32;;;;;;;15.65;100.00;100275.19;5014269;28;20211;-79
2021/05/11 01:02:36;;;;;;;5.00;4.60;;;;;;;15.63;100.00;100283.72;5014711;28;21081;-78
2021/05/11 01:05:02;;;;;;;5.38;4.85;;;;;;;15.48;100.00;100261.41;5031798;28;20200;-78
2021/05/11 01:07:30;;;;;;;6.63;5.30;;;;;;;15.42;100.00;100249.78;4999105;28;20252;-78
2021/05/11 01:09:59;;;;;;;5.53;4.97;;;;;;;15.45;100.00;100259.28;5030826;28;20253;-78
2021/05/11 01:12:25;;;;;;;5.85;5.28;;;;;;;15.61;100.00;100268.72;5032566;28;20243;-78
2021/05/11 01:14:55;;;;;;;5.82;4.95;;;;;;;15.68;100.00;100274.56;5017098;28;20180;-78
2021/05/11 01:17:30;;;;;;;5.35;4.85;;;;;;;15.73;100.00;100286.16;5017999;28;20216;-77
2021/05/11 01:20:01;;;;;;;5.72;5.05;;;;;;;15.75;100.00;100285.84;4989097;28;20566;-77
2021/05/11 01:22:39;;;;;;;6.50;5.38;;;;;;;15.62;100.00;100276.63;4992586;28;20643;-78
2021/05/11 01:25:15;;;;;;;6.32;5.72;;;;;;;15.70;100.00;100278.59;5023199;28;20192;-78
2021/05/11 01:27:54;;;;;;;7.88;6.10;;;;;;;15.69;100.00;100273.44;5017188;28;20176;-78
2021/05/11 01:47:49;;;;;;;6.78;5.78;;;;;;;15.30;100.00;100273.38;5009489;28;20224;-78
2021/05/11 02:24:34;;;;;;;4.30;3.97;;;;;;;14.64;100.00;100198.66;4983993;28;20189;-77
2021/05/11 02:27:02;;;;;;;4.90;4.40;;;;;;;14.54;100.00;100200.84;5011986;28;20235;-77
2021/05/11 02:29:30;;;;;;;4.77;4.37;;;;;;;14.60;100.00;100201.53;4998057;28;20209;-77
2021/05/11 02:31:55;;;;;;;4.90;3.93;;;;;;;14.80;100.00;100234.69;5002524;28;20240;-77
2021/05/11 02:34:23;;;;;;;3.80;3.40;;;;;;;14.80;100.00;100267.50;5005541;28;20181;-77
2021/05/11 02:36:51;;;;;;;5.75;3.88;;;;;;;15.07;100.00;100268.16;4988389;28;20671;-77
2021/05/11 02:39:19;;;;;;;5.93;3.53;;;;;;;15.05;100.00;100271.25;4985491;28;20259;-77
2021/05/11 02:41:45;;;;;;;5.10;3.80;;;;;;;14.91;100.00;100271.56;5013167;28;20741;-81
2021/05/11 02:44:14;;;;;;;4.47;4.07;;;;;;;15.01;100.00;100262.00;5006376;28;20185;-77
2021/05/11 02:46:42;;;;;;;4.43;3.70;;;;;;;14.95;100.00;100239.78;5020704;28;20868;-77
2021/05/11 02:49:12;;;;;;;4.15;3.40;;;;;;;15.00;100.00;100252.19;5019100;28;20343;-77
2021/05/11 02:51:37;;;;;;;4.05;3.47;;;;;;;14.98;100.00;100247.34;5006646;28;20316;-79
2021/05/11 02:54:03;;;;;;;4.23;3.47;;;;;;;14.86;100.00;100233.44;5014726;28;20186;-78
2021/05/11 02:56:28;;;;;;;3.63;3.28;;;;;;;14.71;100.00;100231.06;5032426;28;20603;-77
2021/05/11 02:58:54;;;;;;;3.63;3.13;;;;;;;14.67;100.00;100230.06;5053550;28;20215;-77
2021/05/11 03:01:20;;;;;;;5.05;3.20;;;;;;;14.72;100.00;100227.19;5021817;28;20223;-77
2021/05/11 03:03:45;;;;;;;5.17;3.40;;;;;;;14.82;100.00;100240.63;5025633;28;20186;-78
2021/05/11 03:06:13;;;;;;;4.47;3.50;;;;;;;14.95;100.00;100237.03;5018079;28;20243;-78
2021/05/11 03:08:43;;;;;;;3.87;3.50;;;;;;;15.03;100.00;100243.34;5002898;28;20284;-78
2021/05/11 03:11:11;;;;;;;4.40;3.50;;;;;;;14.97;100.00;100246.53;5034380;28;20224;-78
2021/05/11 03:13:42;;;;;;;4.40;3.27;;;;;;;14.80;100.00;100251.09;5032179;28;20215;-77
2021/05/11 03:16:10;;;;;;;4.00;3.10;;;;;;;14.71;100.00;100259.19;5032381;28;20262;-77
2021/05/11 03:18:36;;;;;;;3.53;2.80;;;;;;;14.51;100.00;100253.38;5016593;28;20208;-77
2021/05/11 03:21:01;;;;;;;4.73;3.33;;;;;;;14.40;100.00;100252.00;5000674;28;20226;-76
2021/05/11 03:23:27;;;;;;;3.70;3.30;;;;;;;14.52;100.00;100238.59;5008752;28;20413;-77
2021/05/11 03:25:53;;;;;;;4.07;2.90;;;;;;;14.45;100.00;100230.03;5029652;28;20275;-77
2021/05/11 03:28:18;;;;;;;5.17;3.43;;;;;;;14.35;100.00;100232.97;5007271;28;20205;-77
2021/05/11 03:30:44;;;;;;;5.20;3.50;;;;;;;14.18;100.00;100242.13;4976046;28;20233;-77
2021/05/11 03:33:13;;;;;;;4.93;3.83;;;;;;;14.29;100.00;100242.41;4980478;28;20608;-78
2021/05/11 03:35:40;;;;;;;4.20;3.55;;;;;;;14.28;100.00;100243.53;5012626;28;20283;-79
2021/05/11 03:38:07;;;;;;;5.17;3.83;;;;;;;14.43;100.00;100235.00;5013912;28;20184;-78
2021/05/11 03:40:32;;;;;;;4.77;3.43;;;;;;;14.41;100.00;100237.22;4979358;28;20229;-78
2021/05/11 03:43:12;;;;;;;5.83;3.63;;;;;;;14.59;100.00;100238.97;5013126;28;20184;-78
2021/05/11 03:45:48;;;;;;;3.60;3.30;;;;;;;14.68;100.00;100232.47;4998543;28;20722;-77
2021/05/11 03:48:13;;;;;;;6.47;3.40;;;;;;;14.60;100.00;100240.59;4983287;28;20192;-78
2021/05/11 03:50:44;;;;;;;4.80;3.47;;;;;;;14.51;100.00;100241.66;4986930;28;20337;-77
2021/05/11 03:53:09;;;;;;;4.43;3.43;;;;;;;14.46;100.00;100255.41;4977762;28;20230;-78
2021/05/11 03:55:35;;;;;;;5.03;3.40;;;;;;;14.37;100.00;100249.06;5004471;28;20233;-78
2021/05/11 03:58:03;;;;;;;4.40;3.13;;;;;;;14.34;100.00;100252.41;4991261;28;20185;-78
2021/05/11 04:00:31;;;;;;;3.40;2.97;;;;;;;14.46;100.00;100252.69;4959285;28;20281;-77
2021/05/11 04:02:56;;;;;;;4.27;3.13;;;;;;;14.16;100.00;100258.00;4990350;28;20216;-76
2021/05/11 04:05:23;;;;;;;4.73;3.50;;;;;;;14.29;100.00;100268.91;4992627;28;20256;-77
2021/05/11 04:07:55;;;;;;;5.93;3.80;;;;;;;14.23;100.00;100261.94;4994034;28;20178;-79
2021/05/11 04:10:44;;;;;;;5.63;3.50;;;;;;;14.34;100.00;100266.88;4971213;28;20209;-78
2021/05/11 04:13:24;;;;;;;4.40;3.33;;;;;;;14.15;100.00;100264.56;4994786;28;20182;-78
2021/05/11 04:18:37;;;;;;;5.13;4.50;;;;;;;13.82;100.00;100241.97;5002272;28;20237;-78
2021/05/11 04:21:02;;;;;;;5.40;4.80;;;;;;;13.77;100.00;100248.66;5015588;28;20279;-77
2021/05/11 04:23:28;;;;;;;6.10;4.33;;;;;;;13.60;100.00;100257.44;5028553;28;20184;-78
2021/05/11 04:25:56;;;;;;;5.33;4.07;;;;;;;13.53;100.00;100262.50;5031346;28;20227;-78
2021/05/11 04:28:22;;;;;;;5.57;4.03;;;;;;;13.59;100.00;100266.75;4999330;28;20224;-77
2021/05/11 04:30:54;;;;;;;7.10;4.30;;;;;;;13.51;100.00;100283.00;4998005;28;20356;-77
2021/05/11 04:33:22;;;;;;;5.60;3.63;;;;;;;13.56;100.00;100278.25;5002177;28;20192;-78
2021/05/11 04:35:50;;;;;;;6.23;4.00;;;;;;;13.42;100.00;100271.16;5002268;28;20219;-78
2021/05/11 04:38:18;;;;;;;5.40;4.10;;;;;;;13.41;100.00;100269.56;4985419;28;20181;-76
2021/05/11 04:40:48;;;;;;;5.23;4.10;;;;;;;13.49;100.00;100264.19;4942930;28;20228;-76
2021/05/11 04:43:14;;;;;;;5.90;4.37;;;;;;;13.48;100.00;100264.53;4964674;28;20186;-76
2021/05/11 04:45:39;;;;;;;9.63;5.13;;;;;;;13.55;100.00;100260.28;4958291;28;20737;-76
2021/05/11 04:48:05;;;;;;;7.30;4.77;;;;;;;13.70;100.00;100262.72;4980712;28;20182;-79
2021/05/11 04:50:31;;;;;;;8.00;4.47;;;;;;;13.78;100.00;100269.41;4998340;28;20259;-77
2021/05/11 04:52:57;;;;;;;4.33;3.90;;;;;;;13.78;100.00;100259.28;5028372;28;20196;-79
2021/05/11 04:55:23;;;;;;;6.13;4.70;;;;;;;13.72;100.00;100246.84;5004041;28;20220;-77
2021/05/11 04:57:55;;;;;;;4.27;3.87;;;;;;;13.56;100.00;100250.97;5036330;28;20188;-78
2021/05/11 05:00:24;;;;;;;4.43;4.00;;;;;;;13.37;100.00;100256.78;4999267;28;20204;-77
2021/05/11 05:02:50;;;;;;;5.27;4.10;;;;;;;13.28;100.00;100247.72;5014382;28;20240;-73
2021/05/11 05:05:16;;;;;;;5.90;4.40;;;;;;;13.16;100.00;100250.88;4997813;28;20191;-78
2021/05/11 05:07:46;;;;;;;7.13;6.40;;;;;;;13.26;100.00;100244.44;4990534;28;20209;-77
2021/05/11 05:10:12;;;;;;;7.07;5.63;;;;;;;13.19;100.00;100254.94;5002826;28;20202;-78
2021/05/11 05:12:38;;;;;;;5.53;4.03;;;;;;;13.17;100.00;100254.44;4979536;28;20296;-76
2021/05/11 05:15:09;;;;;;;4.67;3.47;;;;;;;13.07;100.00;100263.56;4997117;28;20275;-77
2021/05/11 05:17:34;;;;;;;5.23;3.87;;;;;;;13.02;100.00;100262.03;4995603;28;20280;-78
2021/05/11 05:20:02;;;;;;;5.30;4.10;;;;;;;13.00;100.00;100262.34;5016761;28;20303;-78
2021/05/11 05:22:28;;;;;;;4.23;3.80;;;;;;;13.05;100.00;100254.09;4992505;28;20224;-77
2021/05/11 05:24:58;;;;;;;5.00;3.93;;;;;;;13.10;100.00;100246.63;5019087;28;20222;-77
2021/05/11 05:27:51;;;;;;;5.00;3.70;;;;;;;12.94;100.00;100241.72;5035593;28;20243;-77
2021/05/11 05:30:17;;;;;;;4.43;4.03;;;;;;;12.94;100.00;100225.38;5033761;28;20246;-77
2021/05/11 05:32:45;;;;;;;4.30;3.90;;;;;;;12.90;100.00;100234.44;5034634;28;20669;-77
2021/05/11 05:35:14;;;;;;;6.30;3.87;;;;;;;12.95;100.00;100243.34;5001147;28;20549;-78
2021/05/11 05:37:40;;;;;;;4.93;4.33;;;;;;;12.93;100.00;100248.31;5033758;28;20188;-78
2021/05/11 05:40:09;;;;;;;4.07;3.67;;;;;;;12.86;100.00;100255.25;5019883;28;20208;-78
2021/05/11 05:42:36;;;;;;;5.13;3.90;;;;;;;12.86;100.00;100247.88;5032500;28;20564;-78
2021/05/11 05:45:05;;;;;;;5.37;3.80;;;;;;;12.96;100.00;100239.50;5031991;28;20184;-78
2021/05/11 05:47:31;;;;;;;5.47;3.90;;;;;;;13.01;100.00;100242.16;5019186;28;20208;-78
2021/05/11 05:50:02;;;;;;;5.30;3.87;;;;;;;13.03;100.00;100231.75;5028891;28;20224;-77
2021/05/11 05:52:39;;;;;;;4.57;3.53;;;;;;;13.05;100.00;100226.00;4995464;28;20230;-78
2021/05/11 05:55:08;;;;;;;6.80;3.60;;;;;;;13.03;100.00;100239.94;5022332;28;20435;-78
2021/05/11 05:57:33;;;;;;;4.23;3.80;;;;;;;13.15;100.00;100226.66;5042787;28;20181;-77
2021/05/11 06:00:03;;;;;;;4.27;3.40;;;;;;;13.13;100.00;100223.41;5026312;28;20204;-79
2021/05/11 06:02:31;;;;;;;4.83;3.93;;;;;;;13.01;100.00;100235.91;5038893;28;20667;-78
2021/05/11 06:04:56;;;;;;;4.40;3.40;;;;;;;12.99;100.00;100236.19;5040448;28;20654;-79
2021/05/11 06:07:22;;;;;;;3.83;3.23;;;;;;;13.01;100.00;100252.25;5037290;28;20355;-78
2021/05/11 06:09:54;;;;;;;3.53;3.10;;;;;;;12.84;100.00;100247.34;5019516;28;20215;-78
2021/05/11 06:12:27;;;;;;;6.33;3.27;;;;;;;12.90;100.00;100254.34;5024132;28;20235;-78
2021/05/11 06:17:24;;;;;;;4.07;2.60;;;;;;;12.80;100.00;100249.06;5021161;28;20247;-77
2021/05/11 06:19:55;;;;;;;3.13;2.40;;;;;;;12.70;100.00;100240.97;5026808;28;20208;-77
2021/05/11 06:22:23;;;;;;;3.87;2.50;;;;;;;12.59;100.00;100232.47;5009322;28;20334;-78
2021/05/11 06:24:51;;;;;;;5.17;2.20;;;;;;;12.73;100.00;100236.88;5006526;28;20204;-78
2021/05/11 06:27:21;;;;;;;3.03;2.17;;;;;;;12.68;100.00;100237.75;5005038;28;20286;-78
2021/05/11 06:29:48;;;;;;;2.40;2.00;;;;;;;12.70;100.00;100243.72;5039078;28;20204;-78
2021/05/11 06:32:14;;;;;;;3.77;2.40;;;;;;;12.80;100.00;100243.59;5038954;28;20230;-78
2021/05/11 06:34:49;;;;;;;4.93;2.23;;;;;;;12.87;100.00;100230.38;5036812;28;20193;-79
2021/05/11 06:37:17;;;;;;;3.60;2.17;;;;;;;12.75;100.00;100230.00;5007075;28;20302;-78
2021/05/11 06:39:46;;;;;;;4.63;2.50;;;;;;;12.86;100.00;100223.31;5008036;28;20216;-77
2021/05/11 06:42:14;;;;;;;5.93;2.60;;;;;;;12.84;100.00;100209.19;5022612;28;20227;-78
2021/05/11 06:55:21;;;;;;;4.13;3.50;;;;;;;12.96;100.00;100176.81;5036772;28;20211;-78
2021/05/11 06:57:47;;;;;;;5.50;3.63;;;;;;;12.91;100.00;100176.91;5020498;28;20181;-78
2021/05/11 07:00:14;;;;;;;3.97;3.40;;;;;;;12.82;100.00;100173.25;5005288;28;20211;-78
2021/05/11 07:02:39;;;;;;;4.60;3.50;;;;;;;12.91;100.00;100171.47;5016936;28;20265;-77
2021/05/11 07:05:08;;;;;;;3.63;3.23;;;;;;;12.80;100.00;100142.75;5035192;28;20188;-78
2021/05/11 07:07:36;;;;;;;4.37;3.00;;;;;;;12.82;100.00;100137.81;5019319;28;20307;-78
2021/05/11 07:15:17;;;;;;;4.77;2.20;;;;;;;13.06;100.00;100135.75;5021164;28;20258;-77
2021/05/11 07:17:43;;;;;;;5.20;2.07;;;;;;;13.12;100.00;100138.06;5017973;28;20184;-78
2021/05/11 07:20:09;;;;;;;2.60;1.70;;;;;;;12.94;100.00;100134.59;4997905;28;20235;-79
2021/05/11 07:22:35;;;;;;;5.27;1.90;;;;;;;13.02;100.00;100156.53;5025746;28;20188;-78
2021/05/11 07:25:02;;;;;;;2.50;1.80;;;;;;;13.21;100.00;100160.81;5031900;28;20181;-78
2021/05/11 07:27:47;;;;;;;2.60;1.60;;;;;;;13.17;100.00;100176.16;5013195;28;20263;-80
2021/05/11 07:30:24;;;;;;;6.27;1.70;;;;;;;13.09;100.00;100181.47;4998822;28;20220;-78
2021/05/11 07:32:52;;;;;;;3.53;1.70;;;;;;;13.16;100.00;100176.44;5012563;28;20192;-78
2021/05/11 07:35:18;;;;;;;3.50;1.50;;;;;;;13.40;100.00;100168.91;5013659;28;20198;-79
2021/05/11 07:37:46;;;;;;;3.03;1.67;;;;;;;13.07;100.00;100158.34;5017150;28;20199;-78
2021/05/11 07:40:12;;;;;;;4.70;1.70;;;;;;;12.93;100.00;100147.44;5016773;28;20205;-77
2021/05/11 07:42:40;;;;;;;5.57;1.60;;;;;;;12.95;100.00;100163.47;5002592;28;20180;-77
2021/05/11 07:45:08;;;;;;;4.87;1.60;;;;;;;13.19;100.00;100184.03;5032657;28;20548;-76
2021/05/11 07:47:56;;;;;;;3.97;1.40;;;;;;;13.14;100.00;100197.75;4998529;28;20196;-75
2021/05/11 08:15:37;;;;;;;2.50;1.00;;;;;;;13.90;100.00;100123.88;4971950;28;20221;-78
2021/05/11 08:28:33;;;;;;;1.77;1.03;;;;;;;14.43;100.00;100120.22;4986310;28;20303;-77
2021/05/11 08:30:59;;;;;;;2.70;1.17;;;;;;;14.17;100.00;100098.44;5031558;28;20790;-77
2021/05/11 08:33:25;;;;;;;2.00;1.10;;;;;;;13.77;100.00;100061.09;5022638;28;20172;-78
2021/05/11 08:35:53;;;;;;;2.43;1.20;;;;;;;13.73;100.00;100054.66;5022226;28;20238;-77
2021/05/11 08:38:21;;;;;;;2.87;1.00;;;;;;;13.94;100.00;100072.22;5023388;28;20346;-78
2021/05/11 08:40:49;;;;;;;3.23;1.07;;;;;;;14.15;100.00;100078.84;5020431;28;20244;-77
2021/05/11 08:43:31;;;;;;;2.20;1.43;;;;;;;14.23;100.00;100067.16;5031069;28;20256;-76
2021/05/11 08:45:58;;;;;;;3.50;1.20;;;;;;;14.40;100.00;100048.97;5012872;28;20303;-76
2021/05/11 08:48:24;;;;;;;3.57;1.30;;;;;;;14.58;100.00;100050.66;5013384;28;20257;-72
2021/05/11 08:50:59;;;;;;;2.03;1.00;;;;;;;14.54;100.00;100056.00;4995414;28;20246;-77
2021/05/11 09:07:40;;;;;;;2.37;1.87;;;;;;;13.84;100.00;100088.81;4992439;28;20379;-76
2021/05/11 09:26:48;;;;;;;4.27;1.50;;;;;;;14.29;100.00;100061.28;4976023;28;20236;-77
2021/05/11 09:30:16;;;;;;;1.97;1.40;;;;;;;14.47;100.00;100085.69;5003147;28;20208;-77
2021/05/11 10:46:56;;;;;;;2.05;1.13;;;;;;;16.32;100.00;100108.28;5010958;28;20228;-73
2021/05/11 10:49:38;;;;;;;1.95;1.08;;;;;;;16.36;100.00;100110.03;4995313;28;20209;-72
2021/05/11 10:52:26;;;;;;;2.13;1.02;;;;;;;16.33;100.00;100109.88;4972069;28;20427;-74
2021/05/11 10:55:42;;;;;;;1.90;1.00;;;;;;;16.46;99.36;100095.97;4982333;28;20189;-74
2021/05/11 10:58:03;;;;;;;2.53;0.90;;;;;;;16.83;98.00;100098.03;4984048;28;20217;-75
2021/05/11 11:00:44;;;;;;;2.30;1.10;;;;;;;16.52;98.93;100104.84;5001811;28;20291;-72
2021/05/11 11:03:16;;;;;;;2.45;1.10;;;;;;;16.67;98.39;100095.00;4991068;28;20726;-75
2021/05/11 11:05:51;;;;;;;1.90;0.88;;;;;;;16.47;99.86;100099.56;4963833;28;20231;-76
2021/05/11 11:08:41;;;;;;;2.53;1.05;;;;;;;16.62;100.00;100094.38;4996516;28;20212;-74
2021/05/11 11:11:12;;;;;;;2.15;0.90;;;;;;;17.01;99.99;100082.00;4971104;28;20225;-76
2021/05/11 11:13:42;;;;;;;3.08;1.20;;;;;;;17.29;95.98;100087.88;5011363;28;20185;-73
2021/05/11 11:16:10;;;;;;;2.25;1.00;;;;;;;17.74;94.28;100085.84;4974138;28;20245;-73
2021/05/11 11:18:38;;;;;;;1.77;0.90;;;;;;;17.63;90.44;100078.34;4990214;28;20208;-73
2021/05/11 11:22:01;;;;;;;1.10;0.73;;;;;;;17.58;93.73;100069.47;5013181;28;20315;-73
2021/05/11 11:23:56;;;;;;;1.70;0.93;;;;;;;17.87;91.22;100067.50;4976180;28;20199;-74
2021/05/11 11:26:43;;;;;;;2.63;1.10;;;;;;;17.75;94.50;100065.50;4979030;28;20228;-74
2021/05/11 11:29:10;;;;;;;2.10;0.90;;;;;;;17.91;92.42;100062.97;5017833;28;20232;-73
2021/05/11 11:31:45;;;;;;;2.22;1.10;;;;;;;17.08;94.36;100059.53;4980684;28;20228;-74
2021/05/11 11:34:28;;;;;;;2.03;1.08;;;;;;;16.57;98.89;100065.19;4968342;28;20201;-74
2021/05/11 11:37:00;;;;;;;3.20;1.20;;;;;;;16.81;98.85;100068.19;5010602;28;20239;-77
2021/05/11 11:39:31;;;;;;;2.13;0.88;;;;;;;17.03;99.15;100059.69;5012372;28;20216;-74
2021/05/11 11:42:04;;;;;;;2.42;1.15;;;;;;;16.77;100.00;100052.69;4993171;28;20228;-73
2021/05/11 11:44:33;;;;;;;2.45;1.10;;;;;;;16.55;100.00;100032.91;5007523;28;20197;-73
2021/05/11 11:47:10;;;;;;;4.10;1.00;;;;;;;16.64;100.00;100056.44;4999452;28;20252;-74
2021/05/11 11:49:39;;;;;;;2.33;1.20;;;;;;;17.08;100.00;100054.84;4994611;28;20209;-74
2021/05/11 11:52:14;;;;;;;1.13;0.80;;;;;;;16.68;99.13;100060.13;4978907;28;20209;-74
2021/05/11 12:00:17;;;;;;;1.95;0.90;;;;;;;16.98;100.00;100046.19;5003354;28;20293;-74
2021/05/11 12:03:11;;;;;;;2.00;1.05;;;;;;;17.14;99.50;100041.75;4995979;28;20223;-74
2021/05/11 12:05:42;;;;;;;1.25;0.90;;;;;;;17.28;98.83;100036.88;5016426;28;20228;-74
2021/05/11 12:10:53;;;;;;;1.40;0.75;;;;;;;16.99;94.74;100023.88;5005194;28;20351;-74
2021/05/11 12:13:21;;;;;;;1.58;0.70;;;;;;;17.15;96.90;100015.91;5003750;28;20184;-72
2021/05/11 12:16:10;;;;;;;1.63;0.90;;;;;;;17.18;93.37;100009.78;4988812;28;20221;-72
2021/05/11 12:19:09;;;;;;;1.33;0.70;;;;;;;17.18;93.07;100016.09;4995660;28;20231;-73
2021/05/11 12:21:57;;;;;;;1.40;0.70;;;;;;;17.35;91.74;100016.78;5012394;28;20224;-74
2021/05/11 12:24:27;;;;;;;2.38;0.93;;;;;;;17.55;91.00;100012.50;5016452;28;20188;-73
2021/05/11 12:26:55;;;;;;;2.42;0.80;;;;;;;17.72;90.70;100010.41;5002449;28;20724;-72
2021/05/11 12:29:23;;;;;;;3.33;1.10;;;;;;;17.71;87.18;100002.50;5009791;28;20248;-72
2021/05/11 12:31:49;;;;;;;2.60;0.70;;;;;;;17.90;90.18;99995.41;4978746;28;20224;-73
2021/05/11 12:34:24;;;;;;;1.50;0.70;;;;;;;18.01;85.94;100007.59;4998897;28;20188;-73
2021/05/11 12:37:00;;;;;;;2.00;0.90;;;;;;;17.55;86.47;100016.03;4994660;28;20219;-73
2021/05/11 12:42:17;;;;;;;2.17;0.88;;;;;;;17.53;86.96;100012.81;4985280;28;20235;-71
2021/05/11 12:45:01;;;;;;;2.33;0.80;;;;;;;17.73;86.52;100007.34;4995110;28;20185;-72
2021/05/11 12:47:26;;;;;;;1.95;0.80;;;;;;;17.43;87.48;100013.19;4981448;28;20244;-73
2021/05/11 12:49:56;;;;;;;2.63;1.00;;;;;;;17.47;90.20;100011.41;4962618;28;20197;-74
2021/05/11 12:52:30;;;;;;;1.83;1.35;;;;;;;17.84;86.62;100029.72;4986800;28;20232;-72
2021/05/11 12:55:02;;;;;;;2.40;0.88;;;;;;;17.64;84.74;100037.97;4999327;28;20884;-76
2021/05/11 12:57:32;;;;;;;1.98;0.80;;;;;;;17.40;87.14;100040.53;5008693;28;20213;-71
2021/05/11 13:14:48;;;;;;;2.30;1.00;;;;;;;17.90;85.13;100053.13;4993362;28;20284;-72
2021/05/11 13:16:50;;;;;;;1.50;0.70;;;;;;;18.01;83.85;100044.13;4987039;28;20291;-75
2021/05/11 13:30:05;;;;;;;1.35;0.73;;;;;;;17.12;83.74;100038.53;4993386;28;20652;-75
2021/05/11 13:35:32;;;;;;;1.88;0.70;;;;;;;17.11;84.89;100028.69;4944458;28;20225;-77
2021/05/11 13:37:57;;;;;;;1.48;0.80;;;;;;;17.13;85.08;100026.41;5004002;28;20267;-71
2021/05/11 13:40:25;;;;;;;3.22;0.82;;;;;;;17.48;86.49;100023.19;4976170;28;20726;-74
2021/05/11 13:42:54;;;;;;;1.35;0.60;;;;;;;17.62;86.14;100029.22;4983536;28;20191;-74
2021/05/11 13:45:20;;;;;;;1.20;0.80;;;;;;;17.96;82.81;100040.78;5013826;28;20597;-75
2021/05/11 13:48:05;;;;;;;2.72;0.90;;;;;;;18.13;82.45;100050.53;5031949;28;20220;-74
2021/05/11 13:52:59;;;;;;;2.28;0.90;;;;;;;18.03;80.77;100065.78;5032065;28;20193;-75
2021/05/11 13:55:36;;;;;;;1.15;0.93;;;;;;;17.83;79.82;100078.38;5002075;28;20301;-74
2021/05/11 14:03:32;;;;;;;2.83;0.80;;;;;;;18.29;78.63;100078.22;4999113;28;20296;-71
2021/05/11 14:05:58;;;;;;;2.70;1.23;;;;;;;17.86;83.55;100065.94;4992068;28;20234;-73
2021/05/11 14:08:23;;;;;;;2.92;0.90;;;;;;;17.86;83.35;100055.72;4992704;28;20185;-73
2021/05/11 14:10:52;;;;;;;1.27;0.68;;;;;;;17.66;82.54;100052.97;4991851;28;20221;-72
2021/05/11 14:13:20;;;;;;;1.67;0.55;;;;;;;17.78;83.98;100047.53;4977726;28;20758;-73
2021/05/11 14:15:53;;;;;;;1.67;0.77;;;;;;;17.55;83.73;100048.19;4976660;28;20702;-75
2021/05/11 14:18:19;;;;;;;0.95;0.70;;;;;;;17.52;82.13;100048.84;4975367;28;20690;-75
2021/05/11 14:20:44;;;;;;;1.38;0.75;;;;;;;17.74;82.36;100046.59;4974327;28;20225;-75
2021/05/11 14:23:10;;;;;;;0.95;0.70;;;;;;;17.76;83.12;100045.16;4958061;28;20189;-73
2021/05/11 14:25:36;;;;;;;2.15;0.80;;;;;;;17.45;83.95;100049.38;4993235;28;20819;-74
2021/05/11 14:28:02;;;;;;;3.15;0.98;;;;;;;17.37;83.73;100047.47;4994007;28;20232;-75
2021/05/11 14:30:28;;;;;;;2.78;1.67;;;;;;;17.70;85.07;100042.91;4990686;28;20721;-73
2021/05/11 14:32:53;;;;;;;4.40;1.27;;;;;;;17.88;84.42;100041.66;4990833;28;20671;-73
2021/05/11 14:35:19;;;;;;;5.40;1.55;;;;;;;18.04;82.88;100039.91;4991352;28;20684;-71
2021/05/11 14:37:44;;;;;;;1.65;0.90;;;;;;;17.73;82.14;100050.50;4959715;28;20196;-73
2021/05/11 14:40:11;;;;;;;2.28;0.90;;;;;;;17.82;83.38;100054.78;4973826;28;20626;-72
2021/05/11 14:42:36;;;;;;;0.93;0.68;;;;;;;17.87;82.54;100051.03;5010007;28;20188;-71
2021/05/11 14:45:05;;;;;;;1.83;1.02;;;;;;;17.71;82.65;100046.47;5011013;28;20726;-74
2021/05/11 14:47:30;;;;;;;3.00;1.00;;;;;;;17.31;84.59;100038.94;4977742;28;20241;-74
2021/05/11 14:49:56;;;;;;;1.75;0.90;;;;;;;17.41;85.64;100048.41;4995736;28;20205;-72
2021/05/11 14:52:22;;;;;;;2.03;0.90;;;;;;;17.50;84.95;100040.13;5011367;28;20766;-73
2021/05/11 14:54:50;;;;;;;1.98;0.85;;;;;;;17.32;85.04;100048.78;4979823;28;20209;-72
2021/05/11 14:57:16;;;;;;;2.80;0.90;;;;;;;17.63;84.47;100039.09;4980604;28;20216;-74
2021/05/11 14:59:42;;;;;;;1.83;0.70;;;;;;;17.26;84.66;100047.38;5015183;28;20746;-75
2021/05/11 15:02:11;;;;;;;2.47;1.30;;;;;;;17.21;86.52;100039.31;5018203;28;20233;-74
2021/05/11 15:04:37;;;;;;;1.95;0.93;;;;;;;17.36;86.87;100045.88;5002621;28;20189;-75
2021/05/11 15:07:07;;;;;;;3.97;1.35;;;;;;;17.36;87.71;100040.38;5019727;28;20243;-73
2021/05/11 15:09:33;;;;;;;1.60;0.93;;;;;;;17.30;85.16;100046.38;4984109;28;20205;-72
2021/05/11 15:11:58;;;;;;;2.33;0.90;;;;;;;17.17;86.77;100043.88;4993870;28;20256;-76
2021/05/11 15:14:26;;;;;;;2.33;1.00;;;;;;;17.30;86.73;100046.38;4978776;28;20190;-72
2021/05/11 15:17:09;;;;;;;4.43;1.00;;;;;;;17.40;87.17;100041.31;4997909;28;20294;-76
2021/05/11 15:19:36;;;;;;;1.42;0.93;;;;;;;17.32;87.72;100040.56;5012426;28;20211;-74
2021/05/11 15:22:02;;;;;;;1.73;1.00;;;;;;;17.19;87.92;100039.66;4987749;28;20386;-75
2021/05/11 15:24:28;;;;;;;2.80;1.00;;;;;;;17.11;88.91;100020.47;4995458;28;20655;-72
2021/05/11 15:26:56;;;;;;;3.15;1.10;;;;;;;17.18;89.34;100021.59;4993230;28;20235;-72
2021/05/11 15:29:24;;;;;;;1.38;0.70;;;;;;;17.28;87.76;100023.16;5007424;28;20197;-73
2021/05/11 15:31:52;;;;;;;4.47;1.20;;;;;;;17.39;88.17;100028.72;4993655;28;20286;-74
2021/05/11 15:34:17;;;;;;;2.63;1.00;;;;;;;17.69;85.95;100037.75;5012055;28;20181;-73
2021/05/11 15:36:43;;;;;;;3.45;0.93;;;;;;;17.55;86.13;100043.50;5013554;28;20807;-73
2021/05/11 15:39:08;;;;;;;2.92;1.00;;;;;;;17.49;87.59;100050.31;4995374;28;20209;-73
2021/05/11 15:41:35;;;;;;;2.38;1.00;;;;;;;17.44;86.25;100052.44;5011358;28;20232;-73
2021/05/11 15:44:03;;;;;;;2.42;0.90;;;;;;;17.28;87.07;100056.09;5006288;28;20628;-74
2021/05/11 15:46:29;;;;;;;1.83;1.00;;;;;;;17.17;87.56;100049.34;4991741;28;20243;-72
2021/05/11 15:48:55;;;;;;;2.92;0.93;;;;;;;17.18;88.77;100043.53;5010513;28;20204;-74
2021/05/11 15:51:25;;;;;;;1.60;1.00;;;;;;;17.20;89.20;100045.97;4994520;28;20235;-75